Time;durP1;ratioP1;P1;durP2;ratioP2;P2;SDS_P1;SDS_P2;PMS_P1;PMS_P2;Temp;Humidity;BMP_temperature;BMP_pressure;BME280_temperature;BME280_humidity;BME280_pressure;Samples;Min_cycle;Max_cycle;Signal;HPM_P1;HPM_P2
2023/07/19 00:02:07;;;;;;;10.25;5.00;;;;;;;22.84;100.00;97519.06;5059829;28;20021;-74
2023/07/19 00:04:32;;;;;;;8.18;5.15;;;;;;;22.58;100.00;97516.50;5060656;28;20094;-74
2023/07/19 00:06:58;;;;;;;9.38;5.22;;;;;;;22.47;100.00;97521.44;5058129;28;20101;-74
2023/07/19 00:09:23;;;;;;;15.90;5.47;;;;;;;22.32;100.00;97525.84;5062738;28;20381;-74
2023/07/19 00:11:49;;;;;;;8.07;5.40;;;;;;;22.25;100.00;97527.53;5055016;28;20082;-75
2023/07/19 00:14:14;;;;;;;6.20;4.68;;;;;;;22.31;100.00;97527.72;5051844;28;20081;-74
2023/07/19 00:16:40;;;;;;;9.82;5.38;;;;;;;22.28;100.00;97519.03;5053486;28;20440;-74
2023/07/19 00:19:05;;;;;;;8.82;5.35;;;;;;;22.22;100.00;97525.16;5034025;28;20029;-75
2023/07/19 00:21:31;;;;;;;8.95;5.40;;;;;;;22.26;100.00;97529.25;5062085;28;20073;-75
2023/07/19 00:23:56;;;;;;;6.93;5.38;;;;;;;22.11;100.00;97519.03;5052173;28;20029;-75
2023/07/19 00:26:22;;;;;;;9.18;5.63;;;;;;;22.16;100.00;97534.84;5040655;28;20546;-75
2023/07/19 00:28:48;;;;;;;10.85;5.20;;;;;;;22.10;100.00;97544.56;5055041;28;20021;-73
2023/07/19 00:31:13;;;;;;;8.27;5.28;;;;;;;22.03;100.00;97537.19;5058568;28;20045;-74
2023/07/19 00:33:39;;;;;;;8.38;5.32;;;;;;;22.01;100.00;97534.66;5055172;28;20055;-73
2023/07/19 00:36:04;;;;;;;9.18;5.80;;;;;;;21.93;100.00;97528.34;5057306;28;20021;-73
2023/07/19 00:38:30;;;;;;;8.10;5.80;;;;;;;21.83;100.00;97531.16;5040693;28;20495;-74
2023/07/19 00:40:55;;;;;;;10.68;6.18;;;;;;;21.82;100.00;97524.00;5039997;28;20028;-74
2023/07/19 00:43:21;;;;;;;11.13;5.65;;;;;;;21.76;100.00;97518.38;5050205;28;20495;-74
2023/07/19 00:45:48;;;;;;;7.72;5.47;;;;;;;21.70;100.00;97527.19;5057289;28;20033;-74
2023/07/19 00:48:15;;;;;;;9.93;6.30;;;;;;;21.59;100.00;97518.31;5041894;28;20025;-74
2023/07/19 00:50:42;;;;;;;8.13;5.40;;;;;;;21.61;100.00;97531.75;5038674;28;20483;-74
2023/07/19 00:53:09;;;;;;;9.50;6.00;;;;;;;21.70;100.00;97522.59;5055356;28;20111;-73
2023/07/19 00:55:34;;;;;;;7.25;5.70;;;;;;;21.73;100.00;97519.56;5034695;28;20021;-74
2023/07/19 00:58:00;;;;;;;8.65;5.63;;;;;;;21.72;100.00;97514.28;5053079;28;20032;-73
2023/07/19 01:00:25;;;;;;;13.15;5.80;;;;;;;21.68;100.00;97519.22;5065066;28;20104;-74
2023/07/19 01:02:51;;;;;;;11.38;5.55;;;;;;;21.61;100.00;97516.28;5060262;28;20024;-73
2023/07/19 01:05:16;;;;;;;10.18;6.13;;;;;;;21.55;100.00;97507.91;5051165;28;20067;-73
2023/07/19 01:07:42;;;;;;;9.93;5.80;;;;;;;21.60;100.00;97508.25;5061372;28;20108;-74
2023/07/19 01:10:08;;;;;;;7.43;5.38;;;;;;;21.61;100.00;97513.56;5059562;28;20361;-73
2023/07/19 01:12:33;;;;;;;14.20;5.88;;;;;;;21.53;100.00;97510.78;5061277;28;20070;-74
2023/07/19 01:14:59;;;;;;;10.95;5.90;;;;;;;21.56;100.00;97507.75;5038607;28;20025;-74
2023/07/19 01:17:24;;;;;;;9.07;5.05;;;;;;;21.62;100.00;97515.25;5061601;28;20500;-74
2023/07/19 01:19:50;;;;;;;8.07;5.10;;;;;;;21.64;100.00;97506.94;5051346;28;20032;-74
2023/07/19 01:22:15;;;;;;;13.32;6.00;;;;;;;21.61;100.00;97501.81;5037996;28;20441;-74
2023/07/19 01:24:41;;;;;;;7.75;5.50;;;;;;;21.55;100.00;97507.91;5059632;28;20105;-74
2023/07/19 01:27:06;;;;;;;8.32;5.97;;;;;;;21.49;100.00;97501.25;5058478;28;20028;-73
2023/07/19 01:29:32;;;;;;;9.38;5.90;;;;;;;21.49;100.00;97503.13;5055144;28;20025;-73
2023/07/19 01:31:57;;;;;;;9.63;5.50;;;;;;;21.48;100.00;97498.69;5039924;28;20053;-73
2023/07/19 01:34:23;;;;;;;7.93;5.00;;;;;;;21.42;100.00;97502.06;5054699;28;20067;-74
2023/07/19 01:36:48;;;;;;;8.27;5.68;;;;;;;21.40;100.00;97496.81;5060169;28;20034;-74
2023/07/19 01:39:14;;;;;;;12.40;5.32;;;;;;;21.38;100.00;97492.56;5039225;28;20132;-74
2023/07/19 01:41:39;;;;;;;7.47;5.28;;;;;;;21.35;100.00;97495.59;5040416;28;20523;-74
2023/07/19 01:44:05;;;;;;;9.60;5.95;;;;;;;21.35;100.00;97499.13;5041709;28;20028;-74
2023/07/19 01:46:30;;;;;;;9.52;5.90;;;;;;;21.37;100.00;97496.28;5062478;28;20086;-74
2023/07/19 01:48:56;;;;;;;13.45;5.57;;;;;;;21.39;100.00;97502.41;5060431;28;20040;-74
2023/07/19 01:51:21;;;;;;;9.23;5.55;;;;;;;21.46;100.00;97507.03;5043746;28;20102;-74
2023/07/19 01:53:47;;;;;;;11.35;5.80;;;;;;;21.46;100.00;97511.63;5049918;28;20016;-74
2023/07/19 01:56:13;;;;;;;9.90;5.75;;;;;;;21.51;100.00;97506.53;5061103;28;20087;-74
2023/07/19 01:58:38;;;;;;;9.73;5.72;;;;;;;21.39;100.00;97508.69;5047954;28;20087;-74
2023/07/19 02:01:04;;;;;;;9.82;6.90;;;;;;;21.39;100.00;97503.25;5064025;28;20077;-74
2023/07/19 02:03:29;;;;;;;10.85;6.03;;;;;;;21.33;100.00;97503.03;5039258;28;20090;-73
2023/07/19 02:05:56;;;;;;;15.43;6.35;;;;;;;21.32;100.00;97507.63;5060166;28;20029;-73
2023/07/19 02:08:22;;;;;;;11.23;6.30;;;;;;;21.26;100.00;97501.97;5056084;28;20877;-74
2023/07/19 02:10:48;;;;;;;10.43;5.78;;;;;;;21.21;100.00;97498.91;5043600;28;20111;-73
2023/07/19 02:13:13;;;;;;;14.93;6.47;;;;;;;21.13;100.00;97496.16;5058000;28;20511;-74
2023/07/19 02:15:39;;;;;;;17.00;6.65;;;;;;;21.09;100.00;97495.63;5063210;28;20552;-74
2023/07/19 02:18:04;;;;;;;13.02;5.95;;;;;;;21.05;100.00;97502.34;5064808;28;20070;-74
2023/07/19 02:20:30;;;;;;;21.73;7.13;;;;;;;21.09;100.00;97501.06;5067546;28;20033;-74
2023/07/19 02:22:55;;;;;;;19.75;7.72;;;;;;;21.09;100.00;97501.06;5047303;28;20098;-74
2023/07/19 02:25:20;;;;;;;14.40;6.43;;;;;;;21.02;100.00;97497.25;5055628;28;20476;-73
2023/07/19 02:27:46;;;;;;;23.95;7.32;;;;;;;20.98;100.00;97506.72;5045333;28;20131;-74
2023/07/19 02:30:12;;;;;;;26.25;7.38;;;;;;;20.87;100.00;97507.88;5069734;28;20472;-74
2023/07/19 02:32:38;;;;;;;12.98;6.50;;;;;;;20.82;100.00;97495.78;5054133;28;20029;-74
2023/07/19 02:35:04;;;;;;;16.80;9.85;;;;;;;20.80;100.00;97500.50;5042038;28;20028;-74
2023/07/19 02:37:30;;;;;;;44.78;23.25;;;;;;;20.88;100.00;97493.25;5050173;28;20372;-74
2023/07/19 02:39:55;;;;;;;14.68;7.22;;;;;;;20.89;100.00;97488.66;5060269;28;20033;-73
2023/07/19 02:42:21;;;;;;;9.60;5.75;;;;;;;20.80;100.00;97487.75;5065748;28;20094;-73
2023/07/19 02:44:48;;;;;;;21.83;6.32;;;;;;;20.79;100.00;97494.22;5053061;28;20025;-74
2023/07/19 02:47:13;;;;;;;17.58;7.03;;;;;;;20.71;100.00;97486.00;5061497;28;20399;-74
2023/07/19 02:49:41;;;;;;;12.40;6.28;;;;;;;20.66;100.00;97482.91;5054241;28;20128;-74
2023/07/19 02:52:07;;;;;;;8.90;5.45;;;;;;;20.53;100.00;97486.03;5054380;28;20032;-73
2023/07/19 02:54:33;;;;;;;9.82;5.65;;;;;;;20.42;100.00;97478.16;5050844;28;20397;-74
2023/07/19 02:56:58;;;;;;;13.32;5.68;;;;;;;20.29;100.00;97483.13;5057534;28;20028;-74
2023/07/19 02:59:24;;;;;;;8.50;5.80;;;;;;;20.26;100.00;97491.59;5043292;28;20033;-74
2023/07/19 03:01:49;;;;;;;10.50;5.97;;;;;;;20.16;100.00;97493.50;5052035;28;20500;-74
2023/07/19 03:04:18;;;;;;;16.08;6.05;;;;;;;20.18;100.00;97493.34;5058948;28;20035;-74
2023/07/19 03:06:43;;;;;;;12.75;6.82;;;;;;;20.27;100.00;97501.44;5065767;28;20399;-74
2023/07/19 03:09:11;;;;;;;10.63;5.93;;;;;;;20.26;100.00;97496.16;5053506;28;20527;-74
2023/07/19 03:11:36;;;;;;;12.00;6.22;;;;;;;20.30;100.00;97509.28;5058868;28;20048;-74
2023/07/19 03:14:02;;;;;;;11.00;7.10;;;;;;;20.36;100.00;97507.81;5035885;28;20053;-74
2023/07/19 03:16:27;;;;;;;17.95;6.90;;;;;;;20.36;100.00;97507.81;5064802;28;20024;-74
2023/07/19 03:18:53;;;;;;;16.17;7.20;;;;;;;20.41;100.00;97509.03;5059459;28;20020;-75
2023/07/19 03:21:20;;;;;;;20.05;6.50;;;;;;;20.42;100.00;97499.91;5063527;28;20488;-74
2023/07/19 03:23:45;;;;;;;15.25;5.82;;;;;;;20.41;100.00;97505.47;5066464;28;20027;-74
2023/07/19 03:26:11;;;;;;;11.77;6.53;;;;;;;20.33;100.00;97494.53;5060239;28;20400;-75
2023/07/19 03:28:36;;;;;;;12.20;6.55;;;;;;;20.28;100.00;97505.88;5041929;28;20027;-74
2023/07/19 03:31:02;;;;;;;11.07;6.22;;;;;;;20.25;100.00;97510.72;5062224;28;20063;-74
2023/07/19 03:33:27;;;;;;;12.93;6.20;;;;;;;20.20;100.00;97491.31;5063197;28;20025;-74
2023/07/19 03:35:53;;;;;;;13.55;5.90;;;;;;;20.16;100.00;97488.06;5044883;28;20024;-75
2023/07/19 03:38:19;;;;;;;9.07;6.35;;;;;;;20.29;100.00;97495.84;5041515;28;20549;-74
2023/07/19 03:40:45;;;;;;;25.23;10.02;;;;;;;20.34;100.00;97498.94;5052856;28;20114;-75
2023/07/19 03:43:10;;;;;;;31.67;12.07;;;;;;;20.41;100.00;97491.88;5046998;28;20056;-74
2023/07/19 03:45:36;;;;;;;15.60;7.13;;;;;;;20.48;100.00;97496.53;5050224;28;20029;-74
2023/07/19 03:48:02;;;;;;;10.00;6.53;;;;;;;20.53;100.00;97490.63;5044224;28;20034;-77
2023/07/19 03:50:28;;;;;;;8.90;5.88;;;;;;;20.57;100.00;97475.72;5065274;28;20541;-74
2023/07/19 03:52:53;;;;;;;12.20;6.18;;;;;;;20.61;100.00;97477.06;5068327;28;20108;-75
2023/07/19 03:55:19;;;;;;;20.13;7.47;;;;;;;20.69;100.00;97481.72;5061556;28;20024;-74
2023/07/19 03:57:45;;;;;;;18.40;8.13;;;;;;;20.66;100.00;97477.47;5069588;28;20036;-73
2023/07/19 04:00:11;;;;;;;28.73;8.52;;;;;;;20.66;100.00;97469.31;5065691;28;20039;-76
2023/07/19 04:02:37;;;;;;;29.13;7.22;;;;;;;20.73;100.00;97473.13;5056156;28;20404;-74
2023/07/19 04:05:02;;;;;;;18.88;7.18;;;;;;;20.79;100.00;97479.78;5063289;28;20029;-73
2023/07/19 04:07:28;;;;;;;23.85;8.02;;;;;;;20.85;100.00;97477.28;5054339;28;20035;-74
2023/07/19 04:09:53;;;;;;;17.27;7.05;;;;;;;20.78;100.00;97470.75;5063415;28;20024;-74
2023/07/19 04:12:19;;;;;;;20.65;7.68;;;;;;;20.85;100.00;97465.53;5068299;28;20055;-74
2023/07/19 04:14:44;;;;;;;11.65;6.43;;;;;;;20.98;100.00;97465.94;5055348;28;20033;-74
2023/07/19 04:17:11;;;;;;;15.60;6.93;;;;;;;20.99;100.00;97464.91;5056407;28;20038;-74
2023/07/19 04:19:36;;;;;;;11.82;5.95;;;;;;;21.01;100.00;97466.47;5062422;28;20047;-74
2023/07/19 04:22:02;;;;;;;11.02;6.68;;;;;;;21.12;100.00;97472.69;5053139;28;20477;-75
2023/07/19 04:24:28;;;;;;;18.73;7.07;;;;;;;21.14;100.00;97470.63;5050629;28;20487;-74
2023/07/19 04:26:54;;;;;;;11.48;6.68;;;;;;;21.22;100.00;97462.53;5049272;28;20029;-74
2023/07/19 04:29:21;;;;;;;12.05;7.13;;;;;;;21.32;100.00;97466.00;5052529;28;20024;-74
2023/07/19 04:31:46;;;;;;;12.60;7.22;;;;;;;21.46;100.00;97465.34;5069302;28;20132;-74
2023/07/19 04:34:12;;;;;;;9.93;6.90;;;;;;;21.51;100.00;97468.41;5068902;28;20522;-75
2023/07/19 04:36:37;;;;;;;13.77;7.13;;;;;;;21.58;100.00;97464.88;5057330;28;20420;-88
2023/07/19 04:39:03;;;;;;;23.13;8.13;;;;;;;21.79;100.00;97466.28;5051227;28;20495;-90
2023/07/19 04:41:35;;;;;;;17.05;8.55;;;;;;;21.88;100.00;97463.44;5048342;28;20072;-86
2023/07/19 04:44:00;;;;;;;19.13;7.40;;;;;;;22.11;100.00;97471.84;5041347;28;20040;-88
2023/07/19 04:46:26;;;;;;;17.50;7.90;;;;;;;22.38;100.00;97473.38;5063443;28;20037;-85
2023/07/19 04:48:51;;;;;;;22.73;8.50;;;;;;;22.46;100.00;97471.50;5053765;28;20032;-84
2023/07/19 04:51:17;;;;;;;15.95;7.72;;;;;;;22.55;100.00;97464.16;5043870;28;20102;-85
2023/07/19 04:53:43;;;;;;;18.42;7.50;;;;;;;22.59;100.00;97466.38;5040633;28;20124;-87
2023/07/19 04:56:08;;;;;;;16.08;6.70;;;;;;;22.65;100.00;97459.41;5050745;28;20032;-88
2023/07/19 04:58:34;;;;;;;12.50;6.93;;;;;;;22.79;100.00;97464.19;5045772;28;20090;-85
2023/07/19 05:01:08;;;;;;;12.15;6.70;;;;;;;22.90;100.00;97457.50;5061144;28;20090;-90
2023/07/19 05:03:33;;;;;;;18.95;7.20;;;;;;;23.07;100.00;97449.09;5040765;28;20107;-85
2023/07/19 05:05:59;;;;;;;16.10;7.45;;;;;;;24.01;100.00;97459.09;5055693;28;20563;-88
2023/07/19 05:08:24;;;;;;;12.13;6.47;;;;;;;25.38;100.00;97446.91;5042446;28;20064;-90
2023/07/19 05:10:50;;;;;;;13.18;6.18;;;;;;;25.78;100.00;97437.31;5051274;28;20424;-87
2023/07/19 05:13:15;;;;;;;10.70;6.63;;;;;;;25.69;100.00;97438.47;5040585;28;20457;-86
2023/07/19 05:15:41;;;;;;;13.27;6.32;;;;;;;25.45;100.00;97427.81;5039058;28;20087;-86
2023/07/19 05:18:06;;;;;;;12.50;6.20;;;;;;;25.43;100.00;97440.88;5039633;28;20044;-85
2023/07/19 05:20:32;;;;;;;13.80;7.03;;;;;;;25.25;100.00;97439.38;5037865;28;20056;-82
2023/07/19 05:22:58;;;;;;;17.45;6.80;;;;;;;25.17;100.00;97439.44;5065385;28;20040;-85
2023/07/19 05:25:23;;;;;;;22.38;7.00;;;;;;;25.51;100.00;97433.41;5058865;28;20017;-83
2023/07/19 05:27:49;;;;;;;14.52;7.55;;;;;;;26.84;100.00;97426.41;5051717;28;20040;-89
2023/07/19 05:30:15;;;;;;;25.70;8.27;;;;;;;28.42;100.00;97422.50;5053622;28;20056;-87
2023/07/19 05:32:40;;;;;;;25.92;6.60;;;;;;;29.40;100.00;97413.38;5054881;28;20502;-84
2023/07/19 05:35:06;;;;;;;14.93;6.30;;;;;;;29.83;100.00;97419.16;5039090;28;20037;-71
2023/07/19 05:37:32;;;;;;;13.23;6.68;;;;;;;30.25;100.00;97415.75;5067541;28;20036;-73
2023/07/19 05:39:57;;;;;;;9.15;6.00;;;;;;;31.11;100.00;97413.19;5062642;28;20454;-74
2023/07/19 05:42:23;;;;;;;14.07;6.78;;;;;;;31.93;94.30;97420.16;5049488;28;20025;-74
2023/07/19 05:44:48;;;;;;;12.35;6.57;;;;;;;32.11;95.56;97423.78;5032813;28;20044;-75
2023/07/19 05:47:14;;;;;;;13.07;6.25;;;;;;;32.52;87.96;97403.53;5050538;28;20124;-75
2023/07/19 05:49:39;;;;;;;20.48;6.32;;;;;;;33.27;83.31;97401.03;5049215;28;20099;-74
2023/07/19 05:52:05;;;;;;;16.33;6.38;;;;;;;33.65;78.12;97401.41;5065661;28;20024;-75
2023/07/19 05:54:31;;;;;;;8.57;5.90;;;;;;;34.07;75.37;97395.56;5068909;28;20032;-75
2023/07/19 05:56:58;;;;;;;23.35;8.70;;;;;;;33.89;74.36;97390.22;5070408;28;20127;-75
2023/07/19 05:59:23;;;;;;;19.52;6.30;;;;;;;34.41;61.33;97366.81;5068354;28;20078;-86
2023/07/19 06:01:49;;;;;;;13.88;6.50;;;;;;;34.62;65.54;97374.44;5054336;28;20428;-76
2023/07/19 06:04:14;;;;;;;7.40;5.75;;;;;;;34.65;69.00;97387.84;5069121;28;20107;-75
2023/07/19 06:06:40;;;;;;;17.08;5.78;;;;;;;34.72;66.84;97387.69;5070168;28;20032;-75
2023/07/19 06:09:05;;;;;;;11.88;5.70;;;;;;;34.58;62.92;97380.75;5069000;28;20115;-74
2023/07/19 06:11:32;;;;;;;15.18;6.70;;;;;;;34.99;66.31;97387.84;5068741;28;20040;-75
2023/07/19 06:13:59;;;;;;;21.65;9.05;;;;;;;35.64;60.92;97374.13;5052203;28;20035;-75
2023/07/19 06:16:25;;;;;;;19.33;8.05;;;;;;;36.47;58.58;97375.66;5068814;28;20503;-75
2023/07/19 06:18:51;;;;;;;24.40;6.88;;;;;;;36.65;58.36;97376.16;5070420;28;20044;-75
2023/07/19 06:21:17;;;;;;;21.77;6.68;;;;;;;36.59;59.40;97371.63;5063253;28;21609;-75
2023/07/19 06:23:43;;;;;;;13.77;5.85;;;;;;;36.95;56.30;97364.41;5048590;28;20033;-75
2023/07/19 06:26:08;;;;;;;15.90;6.40;;;;;;;37.22;49.90;97354.06;5048625;28;20120;-75
2023/07/19 06:28:35;;;;;;;22.42;6.72;;;;;;;37.44;49.67;97351.09;5032525;28;20647;-75
2023/07/19 06:31:01;;;;;;;15.55;7.70;;;;;;;37.06;55.26;97365.38;5047953;28;20056;-75
2023/07/19 06:33:28;;;;;;;11.00;6.68;;;;;;;37.29;51.92;97345.41;5048723;28;20044;-75
2023/07/19 06:35:54;;;;;;;12.43;6.43;;;;;;;37.80;51.16;97344.59;5048288;28;20025;-75
2023/07/19 06:38:20;;;;;;;22.45;6.85;;;;;;;38.13;46.88;97336.91;5048568;28;20454;-75
2023/07/19 06:40:45;;;;;;;11.85;5.63;;;;;;;38.39;45.66;97317.13;5049771;28;20086;-75
2023/07/19 06:43:10;;;;;;;15.75;5.90;;;;;;;36.37;51.01;97334.59;5031653;28;20048;-75
2023/07/19 06:45:36;;;;;;;14.35;6.20;;;;;;;37.05;49.28;97333.81;5054300;28;20021;-75
2023/07/19 06:48:02;;;;;;;21.17;9.35;;;;;;;38.08;46.83;97328.53;5068103;28;20037;-75
2023/07/19 06:50:27;;;;;;;12.05;6.80;;;;;;;38.26;46.74;97333.59;5069303;28;20461;-75
2023/07/19 06:52:53;;;;;;;12.80;6.60;;;;;;;38.72;44.83;97329.75;5069389;28;20032;-75
2023/07/19 06:55:18;;;;;;;17.33;5.85;;;;;;;38.64;44.24;97316.31;5069258;28;20090;-75
2023/07/19 06:57:44;;;;;;;7.88;5.65;;;;;;;38.20;44.73;97326.31;5068052;28;20112;-75
2023/07/19 07:00:10;;;;;;;13.13;5.88;;;;;;;38.75;44.59;97329.19;5067719;28;20420;-75
2023/07/19 07:02:37;;;;;;;10.98;5.10;;;;;;;39.46;43.53;97334.75;5069407;28;20024;-75
2023/07/19 07:05:02;;;;;;;8.73;5.13;;;;;;;40.01;40.76;97320.53;5068018;28;20028;-75
2023/07/19 07:07:28;;;;;;;10.48;5.78;;;;;;;40.10;41.42;97332.00;5067939;28;20035;-75
2023/07/19 07:09:53;;;;;;;10.40;5.55;;;;;;;39.42;40.05;97322.41;5068005;28;20108;-75
2023/07/19 07:12:19;;;;;;;13.13;5.57;;;;;;;40.18;40.90;97330.56;5067395;28;20515;-75
2023/07/19 07:14:44;;;;;;;12.40;5.30;;;;;;;40.80;38.47;97304.56;5068854;28;20043;-74
2023/07/19 07:17:10;;;;;;;11.30;5.75;;;;;;;41.10;38.38;97315.56;5067616;28;20035;-75
2023/07/19 07:19:35;;;;;;;8.95;5.70;;;;;;;41.54;37.82;97318.19;5068768;28;20024;-74
2023/07/19 07:22:01;;;;;;;12.05;5.70;;;;;;;42.48;35.19;97307.97;5068752;28;20122;-75
2023/07/19 07:24:26;;;;;;;12.75;5.72;;;;;;;42.58;35.44;97305.84;5057545;28;20418;-75
2023/07/19 07:26:52;;;;;;;10.15;5.32;;;;;;;43.59;34.69;97301.22;5035898;28;20040;-74
2023/07/19 07:29:17;;;;;;;13.02;5.72;;;;;;;43.72;33.46;97294.75;5067176;28;20105;-75
2023/07/19 07:31:43;;;;;;;15.07;5.05;;;;;;;44.43;32.45;97283.91;5048635;28;20638;-74
2023/07/19 07:34:09;;;;;;;9.07;5.30;;;;;;;44.24;32.88;97289.69;5048927;28;20033;-74
2023/07/19 07:36:35;;;;;;;8.90;4.63;;;;;;;44.13;33.03;97277.81;5046460;28;20043;-74
2023/07/19 07:39:00;;;;;;;6.07;4.82;;;;;;;43.58;33.48;97277.03;5047247;28;20488;-74
2023/07/19 07:41:28;;;;;;;7.70;4.85;;;;;;;44.19;32.84;97273.75;5065108;28;20409;-75
2023/07/19 07:43:54;;;;;;;7.78;5.28;;;;;;;43.52;33.57;97266.16;5067165;28;20425;-74
2023/07/19 07:46:19;;;;;;;14.63;5.57;;;;;;;44.60;32.26;97267.16;5068275;28;20633;-74
2023/07/19 07:48:45;;;;;;;12.63;6.32;;;;;;;44.26;32.08;97258.38;5050005;28;20029;-74
2023/07/19 07:51:11;;;;;;;6.82;4.93;;;;;;;44.36;31.77;97263.78;5068298;28;20044;-74
2023/07/19 07:53:37;;;;;;;11.48;5.47;;;;;;;43.85;31.66;97252.78;5050352;28;20039;-74
2023/07/19 07:56:02;;;;;;;9.50;5.43;;;;;;;43.03;31.51;97236.69;5068245;28;20389;-74
2023/07/19 07:58:28;;;;;;;8.32;4.97;;;;;;;44.39;29.57;97234.91;5066822;28;20407;-74
2023/07/19 08:00:56;;;;;;;10.00;7.07;;;;;;;45.53;29.61;97237.78;5068110;28;20032;-74
2023/07/19 08:03:22;;;;;;;9.80;7.32;;;;;;;45.82;29.76;97242.03;5067009;28;20024;-73
2023/07/19 08:05:47;;;;;;;9.93;5.40;;;;;;;46.03;28.99;97235.44;5066800;28;20513;-73
2023/07/19 08:08:13;;;;;;;10.93;6.55;;;;;;;45.91;29.54;97231.56;5066943;28;20411;-73
2023/07/19 08:10:39;;;;;;;10.80;5.55;;;;;;;45.99;28.76;97225.13;5066525;28;20056;-74
2023/07/19 08:13:05;;;;;;;7.45;5.03;;;;;;;47.08;27.97;97220.91;5066817;28;20111;-73
2023/07/19 08:15:31;;;;;;;7.45;4.65;;;;;;;48.39;26.60;97221.56;5066508;28;20601;-74
2023/07/19 08:17:56;;;;;;;7.43;5.03;;;;;;;48.84;25.88;97228.16;5066589;28;20028;-74
2023/07/19 08:20:22;;;;;;;6.75;4.68;;;;;;;48.96;26.02;97218.88;5068151;28;20036;-74
2023/07/19 08:22:49;;;;;;;18.17;5.07;;;;;;;46.92;26.79;97217.78;5067893;28;20033;-73
2023/07/19 08:25:16;;;;;;;7.22;4.72;;;;;;;45.36;29.23;97217.94;5066660;28;20031;-72
2023/07/19 08:27:44;;;;;;;8.13;5.50;;;;;;;45.32;28.37;97219.75;5066467;28;20111;-73
2023/07/19 08:30:15;;;;;;;11.77;5.30;;;;;;;46.28;28.64;97219.66;5049873;28;20043;-75
2023/07/19 08:32:47;;;;;;;13.32;5.70;;;;;;;45.19;28.74;97212.19;5067648;28;20040;-74
2023/07/19 08:35:16;;;;;;;9.88;5.80;;;;;;;45.85;28.73;97221.59;5067541;28;20107;-74
2023/07/19 08:37:45;;;;;;;8.95;5.32;;;;;;;46.11;27.94;97209.19;5066538;28;20028;-75
2023/07/19 08:40:12;;;;;;;17.88;6.32;;;;;;;46.01;28.15;97215.13;5066463;28;20497;-74
2023/07/19 08:42:40;;;;;;;12.32;5.72;;;;;;;45.13;28.76;97199.38;5066583;28;20055;-78
2023/07/19 08:45:07;;;;;;;15.30;5.57;;;;;;;46.10;27.00;97196.19;5037995;28;20033;-74
2023/07/19 08:47:33;;;;;;;8.13;4.95;;;;;;;46.25;27.05;97192.84;5053748;28;20449;-74
2023/07/19 08:50:00;;;;;;;9.68;4.55;;;;;;;46.79;26.13;97185.66;5049515;28;20045;-74
2023/07/19 08:52:27;;;;;;;9.38;4.65;;;;;;;46.48;26.42;97187.88;5066500;28;20027;-74
2023/07/19 08:54:52;;;;;;;10.02;4.65;;;;;;;46.12;27.26;97178.84;5070356;28;20495;-75
2023/07/19 08:57:18;;;;;;;6.60;4.55;;;;;;;46.59;25.99;97172.19;5070642;28;20040;-74
2023/07/19 08:59:43;;;;;;;10.50;4.22;;;;;;;46.11;26.29;97174.38;5061361;28;20040;-75
2023/07/19 09:02:09;;;;;;;6.63;4.40;;;;;;;45.82;26.27;97168.50;5054122;28;20025;-74
2023/07/19 09:04:35;;;;;;;5.28;4.70;;;;;;;45.12;26.28;97158.97;5053705;28;20475;-74
2023/07/19 09:07:04;;;;;;;11.00;4.97;;;;;;;45.85;26.63;97167.84;5036434;28;20091;-74
2023/07/19 09:09:30;;;;;;;7.95;4.20;;;;;;;46.10;25.28;97156.56;5053063;28;20094;-74
2023/07/19 09:11:56;;;;;;;7.63;4.70;;;;;;;45.32;26.10;97157.56;5054494;28;20387;-74
2023/07/19 09:14:37;;;;;;;6.32;4.38;;;;;;;45.55;25.91;97156.31;5052690;28;20103;-74
2023/07/19 09:17:02;;;;;;;;;;;;;;;45.73;26.70;97151.53;5053368;28;20036;-74
2023/07/19 09:19:28;;;;;;;8.75;4.70;;;;;;;46.80;25.64;97146.81;5052939;28;20295;-74
2023/07/19 09:21:53;;;;;;;6.63;4.80;;;;;;;47.27;24.88;97151.31;5052675;28;20024;-75
2023/07/19 09:24:19;;;;;;;6.57;4.03;;;;;;;47.69;24.48;97154.25;5052849;28;20021;-74
2023/07/19 09:26:56;;;;;;;5.43;4.05;;;;;;;47.45;24.87;97148.38;5052897;28;20028;-74
2023/07/19 09:29:22;;;;;;;11.15;4.32;;;;;;;48.07;24.49;97155.00;5036177;28;20025;-74
2023/07/19 09:31:53;;;;;;;16.38;5.28;;;;;;;48.69;23.48;97140.75;5052753;28;20064;-74
2023/07/19 09:34:25;;;;;;;7.05;3.88;;;;;;;47.77;23.74;97139.19;5053713;28;20029;-75
2023/07/19 09:36:51;;;;;;;6.47;4.78;;;;;;;47.67;23.82;97131.09;5052603;28;20033;-75
2023/07/19 09:39:17;;;;;;;9.25;4.75;;;;;;;48.82;23.55;97138.75;5035838;28;20017;-75
2023/07/19 09:41:45;;;;;;;7.97;4.50;;;;;;;48.41;23.49;97125.47;5035933;28;20032;-75
2023/07/19 09:44:11;;;;;;;8.38;4.40;;;;;;;46.81;25.23;97128.66;5035913;28;20039;-75
2023/07/19 09:46:37;;;;;;;8.80;4.20;;;;;;;47.37;25.16;97126.59;5052161;28;20087;-75
2023/07/19 09:49:03;;;;;;;6.15;4.55;;;;;;;48.57;24.10;97119.97;5052115;28;20029;-75
2023/07/19 09:51:31;;;;;;;5.55;4.43;;;;;;;49.06;24.08;97123.78;5035803;28;20094;-75
2023/07/19 09:54:00;;;;;;;10.75;4.93;;;;;;;49.07;23.73;97123.41;5051912;28;20093;-75
2023/07/19 09:56:26;;;;;;;6.32;5.03;;;;;;;48.23;24.04;97116.31;5052095;28;20029;-75
2023/07/19 09:58:52;;;;;;;6.22;4.72;;;;;;;47.12;25.38;97106.53;5052051;28;20114;-75
2023/07/19 10:01:18;;;;;;;5.82;4.68;;;;;;;46.78;25.35;97112.31;5035280;28;20031;-75
2023/07/19 10:03:44;;;;;;;7.97;4.20;;;;;;;47.22;25.79;97109.00;5051953;28;20116;-74
2023/07/19 10:06:09;;;;;;;10.68;4.95;;;;;;;47.34;25.78;97111.94;5052286;28;20483;-74
2023/07/19 10:08:35;;;;;;;5.75;4.57;;;;;;;46.89;25.64;97104.31;5053213;28;20052;-75
2023/07/19 10:11:01;;;;;;;7.50;4.50;;;;;;;46.38;25.55;97100.41;5051726;28;20033;-75
2023/07/19 10:13:30;;;;;;;6.38;4.53;;;;;;;42.57;28.97;97106.31;5053046;28;20404;-75
2023/07/19 10:15:55;;;;;;;7.70;5.15;;;;;;;44.45;27.69;97098.97;5035264;28;20029;-75
2023/07/19 10:18:21;;;;;;;11.02;4.88;;;;;;;46.62;26.02;97103.53;5034922;28;20032;-76
2023/07/19 10:21:00;;;;;;;5.72;4.95;;;;;;;47.65;24.76;97107.91;5051936;28;20532;-75
2023/07/19 10:23:25;;;;;;;8.50;5.13;;;;;;;48.77;23.47;97099.19;5052734;28;20031;-76
2023/07/19 10:25:51;;;;;;;5.78;5.10;;;;;;;49.46;22.93;97106.84;5051903;28;20029;-76
2023/07/19 10:28:30;;;;;;;6.45;4.70;;;;;;;49.01;23.88;97096.41;5070198;28;20476;-76
2023/07/19 10:30:55;;;;;;;9.13;4.93;;;;;;;49.97;22.88;97093.84;5071537;28;20095;-76
2023/07/19 10:33:31;;;;;;;6.30;4.97;;;;;;;49.97;22.88;97093.84;5071476;28;20131;-76
2023/07/19 10:36:09;;;;;;;9.27;5.38;;;;;;;49.30;23.66;97081.97;5071473;28;20448;-76
2023/07/19 10:38:36;;;;;;;22.60;6.47;;;;;;;49.69;22.73;97085.25;5072748;28;20021;-76
2023/07/19 10:41:07;;;;;;;30.05;5.63;;;;;;;49.87;23.09;97078.09;5072683;28;20103;-76
2023/07/19 10:43:35;;;;;;;6.20;5.60;;;;;;;49.32;23.03;97073.91;5051380;28;20032;-75
2023/07/19 10:46:03;;;;;;;6.20;5.10;;;;;;;47.78;24.57;97069.91;5051179;28;20403;-75
2023/07/19 10:48:36;;;;;;;6.00;5.35;;;;;;;48.42;24.06;97078.88;5051216;28;20025;-80
2023/07/19 10:51:08;;;;;;;7.03;5.10;;;;;;;47.75;23.91;97067.75;5051433;28;20480;-79
2023/07/19 10:53:45;;;;;;;6.43;5.05;;;;;;;46.58;24.35;97071.38;5051686;28;20028;-79
2023/07/19 10:56:11;;;;;;;6.88;4.82;;;;;;;47.16;23.23;97058.50;5054561;28;20020;-81
2023/07/19 10:58:36;;;;;;;7.00;5.35;;;;;;;47.14;23.27;97055.97;5070926;28;20115;-80
2023/07/19 11:01:02;;;;;;;7.57;5.28;;;;;;;48.72;21.68;97048.28;5071437;28;20036;-81
2023/07/19 11:03:27;;;;;;;7.60;4.72;;;;;;;48.79;21.89;97046.53;5054496;28;20032;-81
2023/07/19 11:05:58;;;;;;;29.25;10.68;;;;;;;50.16;21.19;97052.13;5050399;28;20028;-81
2023/07/19 11:08:25;;;;;;;11.57;5.10;;;;;;;49.41;21.41;97043.31;5070987;28;20025;-81
2023/07/19 11:10:52;;;;;;;6.13;5.20;;;;;;;48.56;20.89;97033.06;5071150;28;20036;-80
2023/07/19 11:13:18;;;;;;;8.05;4.90;;;;;;;48.71;21.85;97052.28;5054409;28;20580;-78
2023/07/19 11:15:49;;;;;;;5.20;4.70;;;;;;;47.07;22.45;97035.84;5053991;28;20035;-77
2023/07/19 11:18:27;;;;;;;8.15;4.93;;;;;;;47.83;22.50;97029.97;5054023;28;20127;-77
2023/07/19 11:20:57;;;;;;;9.38;5.78;;;;;;;48.27;23.36;97031.28;5070613;28;20483;-77